Time;durP1;ratioP1;P1;durP2;ratioP2;P2;SDS_P1;SDS_P2;PMS_P1;PMS_P2;Temp;Humidity;BMP_temperature;BMP_pressure;BME280_temperature;BME280_humidity;BME280_pressure;Samples;Min_cycle;Max_cycle;Signal;HPM_P1;HPM_P2
2023/01/04 00:01:57;;;;;;;1.70;1.10;;;;;;;16.99;60.16;101609.13;6188979;23;20005;-79
2023/01/04 00:04:23;;;;;;;2.35;1.23;;;;;;;16.99;60.06;101603.94;6164896;23;20029;-78
2023/01/04 00:06:51;;;;;;;3.05;1.40;;;;;;;16.98;60.26;101604.78;6164353;23;20001;-78
2023/01/04 00:09:16;;;;;;;2.65;1.30;;;;;;;16.99;60.28;101609.13;6189131;23;20009;-79
2023/01/04 00:11:42;;;;;;;2.20;1.20;;;;;;;16.99;60.13;101600.47;6164015;23;20422;-78
2023/01/04 00:14:10;;;;;;;2.95;1.20;;;;;;;16.99;60.20;101592.69;6163850;23;20042;-78
2023/01/04 00:16:36;;;;;;;2.95;1.23;;;;;;;16.98;60.10;101586.56;6163874;23;20009;-79
2023/01/04 00:19:02;;;;;;;3.55;1.52;;;;;;;16.99;60.04;101582.28;6187822;23;20005;-78
2023/01/04 00:21:29;;;;;;;3.92;1.20;;;;;;;16.98;60.15;101576.19;6162141;23;20009;-79
2023/01/04 00:23:57;;;;;;;3.20;1.30;;;;;;;16.98;60.11;101577.91;6187536;23;20025;-79
2023/01/04 00:26:25;;;;;;;2.10;0.93;;;;;;;16.98;60.06;101575.31;6187495;23;20059;-78
2023/01/04 00:28:59;;;;;;;1.75;1.00;;;;;;;16.98;60.18;101568.38;6187253;23;20381;-78
2023/01/04 00:31:26;;;;;;;2.08;1.10;;;;;;;16.97;59.99;101571.84;6162192;23;20009;-78
2023/01/04 00:34:00;;;;;;;3.20;1.20;;;;;;;16.98;60.23;101565.78;6188617;23;20052;-79
2023/01/04 00:36:26;;;;;;;2.13;1.02;;;;;;;16.98;60.06;101564.91;6187547;23;20000;-79
2023/01/04 00:39:08;;;;;;;1.95;1.02;;;;;;;16.97;60.06;101558.84;6162247;23;20005;-78
2023/01/04 00:41:47;;;;;;;2.22;1.00;;;;;;;16.96;60.11;101538.94;6186394;23;20015;-78
2023/01/04 00:44:13;;;;;;;4.60;1.30;;;;;;;16.96;60.13;101544.13;6197107;23;20094;-79
2023/01/04 00:46:39;;;;;;;2.65;1.20;;;;;;;16.96;60.13;101538.94;6192762;23;20492;-78
2023/01/04 00:49:06;;;;;;;2.53;1.05;;;;;;;16.95;60.07;101531.97;6191986;23;20005;-79
2023/01/04 00:51:33;;;;;;;2.17;0.98;;;;;;;16.97;60.02;101529.38;6192150;23;20009;-79
2023/01/04 00:54:00;;;;;;;2.30;1.05;;;;;;;16.96;60.24;101525.03;6217955;23;20426;-79
2023/01/04 00:56:28;;;;;;;2.10;1.08;;;;;;;16.96;60.15;101519.84;6217954;23;20329;-79
2023/01/04 00:58:58;;;;;;;2.67;0.90;;;;;;;16.95;60.20;101508.56;6218301;23;20353;-79
2023/01/04 01:01:26;;;;;;;2.15;1.00;;;;;;;16.96;60.03;101530.25;6218661;23;20012;-79
2023/01/04 01:03:53;;;;;;;2.67;1.02;;;;;;;16.95;60.04;101503.38;6217773;23;20082;-78
2023/01/04 01:06:19;;;;;;;1.98;1.10;;;;;;;16.95;60.03;101497.31;6191136;23;20012;-78
2023/01/04 01:08:45;;;;;;;2.63;1.02;;;;;;;16.96;59.95;101493.84;6167394;23;20499;-78
2023/01/04 01:11:10;;;;;;;1.80;1.00;;;;;;;16.94;60.07;101493.84;6192946;23;20063;-79
2023/01/04 01:13:36;;;;;;;1.92;0.98;;;;;;;16.94;59.90;101487.75;6193056;23;20440;-79
2023/01/04 01:16:12;;;;;;;1.58;1.10;;;;;;;16.94;59.79;101488.66;6193199;23;20071;-79
2023/01/04 01:18:39;;;;;;;2.30;0.75;;;;;;;16.93;60.13;101481.69;6219226;23;20024;-78
2023/01/04 01:21:07;;;;;;;2.00;0.93;;;;;;;16.93;60.01;101481.69;6192304;23;20005;-78
2023/01/04 01:23:33;;;;;;;2.00;0.90;;;;;;;16.94;59.97;101472.16;6143485;23;20013;-79
2023/01/04 01:26:04;;;;;;;1.65;0.77;;;;;;;16.94;60.00;101472.16;6191356;23;20062;-78
2023/01/04 01:28:29;;;;;;;1.75;0.93;;;;;;;16.94;60.17;101474.75;6218045;23;20047;-79
2023/01/04 01:30:58;;;;;;;1.27;0.82;;;;;;;16.94;59.89;101457.47;6216545;23;20008;-78
2023/01/04 01:33:23;;;;;;;1.40;0.80;;;;;;;16.94;60.05;101459.16;6167611;23;20014;-79
2023/01/04 01:35:49;;;;;;;2.20;1.00;;;;;;;16.94;59.93;101460.06;6166389;23;20032;-79
2023/01/04 01:38:14;;;;;;;1.80;0.90;;;;;;;16.94;60.00;101488.66;6166467;23;20005;-79
2023/01/04 01:40:43;;;;;;;1.48;0.90;;;;;;;16.92;59.89;101453.97;6166242;23;20024;-78
2023/01/04 01:43:21;;;;;;;1.75;0.85;;;;;;;16.93;60.07;101453.09;6166462;23;20001;-79
2023/01/04 01:45:50;;;;;;;1.70;1.00;;;;;;;16.93;60.18;101444.44;6217789;23;20480;-79
2023/01/04 01:48:27;;;;;;;2.00;0.80;;;;;;;16.93;60.10;101450.50;6218351;23;20009;-79
2023/01/04 01:50:56;;;;;;;1.20;0.73;;;;;;;16.92;60.02;101456.59;6191309;23;20015;-79
2023/01/04 01:53:24;;;;;;;1.88;0.80;;;;;;;16.92;60.30;101453.97;6216119;23;20102;-78
2023/01/04 01:55:50;;;;;;;1.73;0.75;;;;;;;16.92;59.76;101451.38;6216023;23;20091;-79
2023/01/04 01:58:32;;;;;;;1.65;0.90;;;;;;;16.93;60.13;101453.09;6216030;23;20028;-79
2023/01/04 02:00:58;;;;;;;1.98;0.90;;;;;;;16.93;59.97;101447.91;6191015;23;20329;-79
2023/01/04 02:03:33;;;;;;;1.60;0.93;;;;;;;16.93;59.98;101437.50;6141558;23;20112;-78
2023/01/04 02:06:01;;;;;;;1.27;0.73;;;;;;;16.92;60.15;101435.78;6216049;23;20007;-79
2023/01/04 02:08:28;;;;;;;1.50;0.70;;;;;;;16.93;60.32;101440.09;6165901;23;20005;-79
2023/01/04 02:10:54;;;;;;;1.55;0.70;;;;;;;16.93;60.24;101439.25;6216700;23;20011;-79
2023/01/04 02:13:24;;;;;;;1.98;0.90;;;;;;;16.92;60.18;101469.59;6166433;23;20004;-79
2023/01/04 02:16:10;;;;;;;1.45;0.80;;;;;;;16.92;60.03;101456.59;6216135;23;20008;-78
2023/01/04 02:18:47;;;;;;;1.83;0.70;;;;;;;16.92;59.95;101440.09;6175018;23;20004;-78
2023/01/04 02:21:52;;;;;;;1.13;0.70;;;;;;;16.93;59.92;101457.44;6216985;23;20000;-79
2023/01/04 02:24:38;;;;;;;1.70;0.73;;;;;;;16.92;60.30;101451.38;6218786;23;20008;-79
2023/01/04 02:27:40;;;;;;;1.75;0.80;;;;;;;16.93;60.17;101444.44;6218202;23;20000;-79
2023/01/04 02:30:28;;;;;;;1.35;0.80;;;;;;;16.93;60.25;101436.66;6218901;23;20027;-79
2023/01/04 02:33:09;;;;;;;1.45;0.73;;;;;;;16.93;60.31;101436.66;6217290;23;20004;-79
2023/01/04 02:35:45;;;;;;;1.17;0.70;;;;;;;16.93;60.27;101431.44;6218594;23;20007;-79
2023/01/04 02:38:19;;;;;;;2.03;0.88;;;;;;;16.93;60.30;101436.66;6217659;23;20076;-78
2023/01/04 02:40:45;;;;;;;1.80;0.80;;;;;;;16.92;60.17;101428.00;6219329;23;20000;-79
2023/01/04 02:46:32;;;;;;;1.90;0.63;;;;;;;16.92;60.25;101446.19;6219728;23;20047;-79
2023/01/04 02:51:43;;;;;;;1.40;0.70;;;;;;;16.93;60.19;101418.44;6219332;23;20460;-79
2023/01/04 02:54:20;;;;;;;2.97;1.05;;;;;;;16.92;60.32;101411.50;6219522;23;20004;-79
2023/01/04 02:57:23;;;;;;;1.50;0.70;;;;;;;16.92;60.22;101427.09;6219068;23;19997;-79
2023/01/04 03:00:23;;;;;;;1.25;0.70;;;;;;;16.92;59.94;101424.50;6217381;23;20004;-79
2023/01/04 03:06:15;;;;;;;2.05;0.80;;;;;;;16.92;60.19;101414.09;6219772;23;20337;-79
2023/01/04 03:08:52;;;;;;;1.67;0.77;;;;;;;16.91;60.55;101415.84;6219315;23;20005;-79
2023/01/04 03:14:21;;;;;;;2.10;0.88;;;;;;;16.91;60.51;101405.44;6195708;23;20051;-79
2023/01/04 03:16:49;;;;;;;2.13;0.70;;;;;;;16.91;60.43;101392.44;6218081;23;20005;-79
2023/01/04 03:19:50;;;;;;;2.22;0.88;;;;;;;16.91;60.27;101388.97;6191221;23;20325;-79
2023/01/04 03:22:05;;;;;;;2.42;0.93;;;;;;;16.91;60.28;101405.44;6217419;23;20001;-78
2023/01/04 03:36:07;;;;;;;1.63;0.70;;;;;;;16.90;60.52;101393.31;6218075;23;20036;-79
2023/01/04 03:50:46;;;;;;;1.65;0.82;;;;;;;16.90;60.29;101376.81;6231973;23;20019;-82
2023/01/04 03:53:13;;;;;;;2.20;0.90;;;;;;;16.90;60.23;101382.91;6205272;23;20011;-82
2023/01/04 03:55:40;;;;;;;2.42;1.05;;;;;;;16.90;60.39;101369.91;6173140;23;20015;-81
2023/01/04 03:58:06;;;;;;;2.28;0.75;;;;;;;16.90;60.44;101356.03;6229516;23;20001;-82
2023/01/04 04:00:33;;;;;;;2.45;0.90;;;;;;;16.90;60.64;101363.84;6181054;23;20004;-82
2023/01/04 04:03:06;;;;;;;1.27;0.70;;;;;;;16.90;60.64;101369.03;6204895;23;20429;-82
2023/01/04 04:08:27;;;;;;;2.40;0.95;;;;;;;16.89;60.55;101351.72;6218793;23;20143;-79
2023/01/04 04:13:46;;;;;;;1.30;0.70;;;;;;;16.89;60.50;101336.97;6198010;23;20023;-79
2023/01/04 04:16:11;;;;;;;2.10;0.80;;;;;;;16.88;60.38;101330.06;6219122;23;20001;-78
2023/01/04 04:18:36;;;;;;;1.90;0.90;;;;;;;16.89;60.39;101333.50;6167536;23;20015;-78
2023/01/04 04:21:02;;;;;;;1.15;0.70;;;;;;;16.88;60.56;101331.78;6167177;23;20107;-79
2023/01/04 04:23:27;;;;;;;2.05;0.70;;;;;;;16.88;60.39;101318.78;6192482;23;20080;-79
2023/01/04 04:25:52;;;;;;;1.83;0.80;;;;;;;16.88;60.53;101329.19;6192249;23;20353;-79
2023/01/04 04:28:18;;;;;;;1.77;0.70;;;;;;;16.88;60.50;101331.78;6167116;23;20009;-79
2023/01/04 04:30:43;;;;;;;1.27;0.70;;;;;;;16.87;60.48;101307.50;6167842;23;20071;-79
2023/01/04 04:33:09;;;;;;;1.45;0.70;;;;;;;16.88;60.40;101331.78;6192003;23;20005;-79
2023/01/04 04:35:34;;;;;;;2.22;0.77;;;;;;;16.87;60.68;101338.69;6218722;23;20043;-79
2023/01/04 04:37:59;;;;;;;1.67;0.60;;;;;;;16.87;60.40;101315.31;6166525;23;20001;-79
2023/01/04 04:43:09;;;;;;;1.50;0.70;;;;;;;16.86;60.42;101317.03;6177022;23;20062;-79
2023/01/04 04:45:34;;;;;;;2.08;0.70;;;;;;;16.87;60.50;101302.31;6169049;23;20036;-79
2023/01/04 04:47:59;;;;;;;2.55;0.80;;;;;;;16.86;60.53;101319.66;6193719;23;20012;-79
2023/01/04 04:50:25;;;;;;;1.30;0.70;;;;;;;16.86;60.64;101305.78;6194423;23;20032;-78
2023/01/04 04:52:50;;;;;;;2.03;0.90;;;;;;;16.86;60.55;101311.00;6194289;23;20009;-79
2023/01/04 04:55:16;;;;;;;1.85;0.82;;;;;;;16.86;60.48;101300.59;6193894;23;20024;-79
2023/01/04 04:57:41;;;;;;;2.58;0.90;;;;;;;16.85;60.45;101294.53;6169138;23;20429;-79
2023/01/04 05:00:07;;;;;;;2.00;0.90;;;;;;;16.86;60.38;101324.00;6194174;23;20013;-79
2023/01/04 05:02:32;;;;;;;2.15;0.90;;;;;;;16.85;60.60;101276.34;6168965;23;20009;-79
2023/01/04 05:04:58;;;;;;;1.90;0.80;;;;;;;16.86;60.61;101272.00;6194556;23;20443;-79
2023/01/04 05:07:23;;;;;;;1.88;0.50;;;;;;;16.85;60.41;101258.16;6194254;23;20455;-79
2023/01/04 05:09:48;;;;;;;1.75;0.70;;;;;;;16.84;60.50;101271.13;6168951;23;20012;-79
2023/01/04 05:14:57;;;;;;;;;;;;;;;16.85;60.51;101220.84;6198792;23;20384;-79
2023/01/04 05:17:23;;;;;;;2.55;0.80;;;;;;;16.85;60.50;101215.66;6194417;23;19912;-79
2023/01/04 05:19:48;;;;;;;1.73;0.90;;;;;;;16.85;60.58;101223.47;6168595;23;20443;-78
2023/01/04 05:22:13;;;;;;;2.38;0.80;;;;;;;16.84;60.43;101230.41;6168073;23;20099;-79
2023/01/04 05:24:39;;;;;;;1.75;0.80;;;;;;;16.84;60.25;101229.53;6218685;23;20328;-79
2023/01/04 05:27:04;;;;;;;1.98;0.90;;;;;;;16.84;60.66;101250.34;6168875;23;20059;-79
2023/01/04 05:32:13;;;;;;;1.88;1.00;;;;;;;16.84;60.45;101230.41;6199228;23;20072;-81
2023/01/04 05:34:39;;;;;;;2.15;0.82;;;;;;;16.82;60.57;101216.53;6200196;23;20012;-81
2023/01/04 05:37:04;;;;;;;1.38;0.68;;;;;;;16.83;60.56;101258.97;6174712;23;20013;-81
2023/01/04 05:39:30;;;;;;;2.58;1.00;;;;;;;16.84;60.56;101284.13;6171724;23;20307;-79
2023/01/04 05:44:39;;;;;;;;;;;;;;;16.85;60.45;101298.84;6198554;23;20063;-78
2023/01/04 05:47:04;;;;;;;1.95;0.73;;;;;;;16.84;60.45;101282.38;6194098;23;19907;-79
2023/01/04 05:49:29;;;;;;;2.05;0.95;;;;;;;16.83;60.78;101291.06;6168849;23;20008;-78
2023/01/04 05:51:55;;;;;;;1.85;0.88;;;;;;;16.83;60.48;101292.78;6170331;23;20141;-78
2023/01/04 05:54:20;;;;;;;3.85;0.98;;;;;;;16.83;60.68;101284.97;6169953;23;20012;-79
2023/01/04 05:56:45;;;;;;;2.63;1.00;;;;;;;16.84;60.65;101304.91;6166838;23;20015;-78
2023/01/04 05:59:11;;;;;;;3.25;0.90;;;;;;;16.83;60.80;101271.97;6167944;23;20007;-78
2023/01/04 06:01:36;;;;;;;1.77;0.80;;;;;;;16.83;60.55;101274.56;6191779;23;20392;-78
2023/01/04 06:04:01;;;;;;;1.23;0.75;;;;;;;16.83;60.67;101267.66;6167041;23;20066;-78
2023/01/04 06:06:27;;;;;;;2.40;0.90;;;;;;;16.84;60.74;101277.19;6166686;23;20056;-78
2023/01/04 06:08:52;;;;;;;2.42;0.90;;;;;;;16.85;60.69;101265.06;6166868;23;20084;-78
2023/01/04 06:11:17;;;;;;;1.33;0.70;;;;;;;16.86;60.57;101269.41;6166894;23;20058;-79
2023/01/04 06:13:43;;;;;;;1.85;0.80;;;;;;;16.85;60.54;101270.25;6167276;23;20062;-79
2023/01/04 06:16:08;;;;;;;2.50;0.75;;;;;;;16.86;60.82;101282.41;6167622;23;20449;-79
2023/01/04 06:18:34;;;;;;;1.40;0.77;;;;;;;16.87;60.73;101278.91;6166752;23;20005;-79
2023/01/04 06:20:59;;;;;;;1.92;0.68;;;;;;;16.88;60.77;101272.00;6167306;23;20072;-79
2023/01/04 06:23:24;;;;;;;1.38;0.60;;;;;;;16.89;60.88;101278.94;6167056;23;20440;-79
2023/01/04 06:25:50;;;;;;;1.90;0.80;;;;;;;16.89;60.65;101266.78;6167216;23;20158;-79
2023/01/04 06:28:15;;;;;;;1.75;0.82;;;;;;;16.90;60.85;101260.75;6170191;23;20010;-79
2023/01/04 06:30:40;;;;;;;2.97;1.00;;;;;;;16.89;60.83;101258.13;6171227;23;20425;-79
2023/01/04 06:33:06;;;;;;;2.05;0.80;;;;;;;16.89;60.90;101260.72;6196918;23;20011;-79
2023/01/04 06:35:31;;;;;;;2.20;0.85;;;;;;;16.91;60.76;101272.84;6195930;23;20111;-78
2023/01/04 06:37:56;;;;;;;2.38;0.70;;;;;;;16.91;60.60;101270.25;6174052;23;20005;-79
2023/01/04 06:40:22;;;;;;;2.55;1.00;;;;;;;16.91;60.96;101264.19;6187642;23;20433;-80
2023/01/04 06:42:47;;;;;;;1.75;0.90;;;;;;;16.90;60.99;101258.13;6213909;23;19996;-80
2023/01/04 06:45:14;;;;;;;2.25;1.00;;;;;;;16.92;60.93;101250.31;6175212;23;20016;-80
2023/01/04 06:47:40;;;;;;;2.30;0.90;;;;;;;16.91;60.82;101265.06;6194025;23;20001;-80
2023/01/04 06:50:06;;;;;;;2.05;1.00;;;;;;;16.91;60.92;101257.25;6193376;23;20040;-80
2023/01/04 06:52:31;;;;;;;2.63;0.90;;;;;;;16.92;60.91;101269.41;6193561;23;20008;-80
2023/01/04 06:54:56;;;;;;;1.88;0.93;;;;;;;16.92;60.96;101242.53;6167542;23;20028;-79
2023/01/04 06:57:22;;;;;;;2.00;0.82;;;;;;;16.97;61.16;101246.00;6167291;23;20054;-79
2023/01/04 06:59:51;;;;;;;2.17;0.90;;;;;;;16.98;61.00;101251.19;6218598;23;20066;-79
2023/01/04 07:02:16;;;;;;;2.65;0.93;;;;;;;16.96;61.00;101239.06;6191744;23;20000;-79
2023/01/04 07:04:42;;;;;;;2.20;0.90;;;;;;;16.95;61.10;101238.19;6217020;23;20083;-80
2023/01/04 07:07:07;;;;;;;3.10;1.10;;;;;;;16.94;60.89;101265.06;6222055;23;20421;-79
2023/01/04 07:09:36;;;;;;;6.07;1.20;;;;;;;16.93;61.07;101234.72;6224198;23;20052;-79
2023/01/04 07:12:02;;;;;;;4.75;1.60;;;;;;;16.93;61.21;101232.13;6175087;23;20358;-79
2023/01/04 07:14:27;;;;;;;3.53;1.30;;;;;;;16.93;61.52;101229.53;6200092;23;20016;-79
2023/01/04 07:16:53;;;;;;;5.70;1.40;;;;;;;16.93;61.37;101237.31;6192535;23;20011;-78
2023/01/04 07:19:32;;;;;;;4.80;1.30;;;;;;;16.93;61.41;101229.53;6224052;23;20004;-79
2023/01/04 07:22:00;;;;;;;4.00;1.55;;;;;;;16.93;61.47;101218.28;6190515;23;20087;-78
2023/01/04 07:24:26;;;;;;;5.03;1.50;;;;;;;16.93;61.27;101213.94;6217280;23;20035;-78
2023/01/04 07:26:51;;;;;;;4.50;1.38;;;;;;;16.92;61.43;101211.31;6218556;23;20023;-79
2023/01/04 07:29:17;;;;;;;4.95;1.73;;;;;;;16.93;61.29;101220.88;6217072;23;20008;-78
2023/01/04 07:31:45;;;;;;;4.47;1.60;;;;;;;16.93;61.56;101216.53;6192144;23;20037;-79
2023/01/04 07:34:10;;;;;;;3.88;1.50;;;;;;;16.93;61.54;101202.69;6191158;23;20000;-79
2023/01/04 07:36:36;;;;;;;4.05;1.33;;;;;;;16.93;61.71;101208.72;6191659;23;20080;-78
2023/01/04 07:39:01;;;;;;;5.30;1.40;;;;;;;16.94;61.45;101220.88;6216433;23;20000;-78
2023/01/04 07:41:27;;;;;;;3.53;1.60;;;;;;;16.94;61.82;101218.28;6215930;23;20000;-78
2023/01/04 07:43:52;;;;;;;3.58;1.50;;;;;;;16.93;61.62;101203.53;6191280;23;20004;-79
2023/01/04 07:46:21;;;;;;;3.78;1.50;;;;;;;16.94;61.55;101212.19;6166005;23;20441;-78
2023/01/04 07:48:46;;;;;;;3.63;1.38;;;;;;;16.94;61.62;101204.38;6167357;23;20013;-78
2023/01/04 07:51:15;;;;;;;3.95;1.60;;;;;;;16.95;61.74;101214.78;6166377;23;20087;-78
2023/01/04 07:53:40;;;;;;;5.00;1.58;;;;;;;16.95;61.46;101199.19;6191789;23;20082;-78
2023/01/04 08:50:21;;;;;;;5.38;1.83;;;;;;;17.30;62.06;101272.84;6221664;22;20036;-79
2023/01/04 08:52:47;;;;;;;5.93;2.08;;;;;;;17.27;62.09;101264.19;6192994;23;20252;-80
2023/01/04 08:55:12;;;;;;;4.35;2.00;;;;;;;17.30;61.82;101265.03;6221992;23;20028;-80
2023/01/04 08:57:38;;;;;;;4.88;1.67;;;;;;;17.29;62.00;101279.78;6176166;23;20039;-80
2023/01/04 09:00:05;;;;;;;4.57;1.90;;;;;;;17.30;61.81;101272.84;6200287;23;20433;-80
2023/01/04 09:02:30;;;;;;;3.90;1.80;;;;;;;17.28;61.88;101273.69;6199089;23;20069;-80
2023/01/04 09:04:59;;;;;;;5.03;1.98;;;;;;;17.31;61.74;101287.56;6192751;23;20004;-80
2023/01/04 09:07:28;;;;;;;6.28;2.33;;;;;;;17.32;62.06;101273.72;6191504;23;20066;-80
2023/01/04 09:09:53;;;;;;;4.22;1.88;;;;;;;17.32;62.16;101278.91;6217522;23;20004;-80
2023/01/04 09:12:18;;;;;;;5.68;2.33;;;;;;;17.33;62.16;101272.81;6192504;23;20310;-80
2023/01/04 09:14:44;;;;;;;4.35;1.80;;;;;;;17.33;61.86;101291.03;6191842;23;20396;-80
2023/01/04 09:17:09;;;;;;;5.57;2.00;;;;;;;17.33;61.80;101285.84;6192980;23;20032;-80
2023/01/04 09:19:35;;;;;;;4.22;1.98;;;;;;;17.33;62.12;101284.09;6217454;23;20004;-80
2023/01/04 09:22:00;;;;;;;4.63;2.08;;;;;;;17.33;61.93;101291.91;6191337;23;20043;-79
2023/01/04 09:24:26;;;;;;;4.13;1.85;;;;;;;17.33;62.02;101291.91;6191483;23;20075;-79
2023/01/04 09:26:51;;;;;;;4.07;1.92;;;;;;;17.35;61.91;101281.50;6201627;23;20444;-80
2023/01/04 09:29:17;;;;;;;3.97;1.55;;;;;;;17.35;62.14;101286.69;6208114;23;20016;-79
2023/01/04 09:31:43;;;;;;;5.35;1.80;;;;;;;17.35;61.78;101313.56;6224335;23;20032;-79
2023/01/04 09:34:11;;;;;;;3.78;1.70;;;;;;;17.35;62.02;101297.97;6221433;23;19997;-79
2023/01/04 09:36:36;;;;;;;4.65;2.03;;;;;;;17.36;62.00;101310.13;6220349;23;20130;-79
2023/01/04 09:39:02;;;;;;;3.95;1.80;;;;;;;17.37;62.01;101300.56;6194719;23;20001;-79
2023/01/04 09:41:31;;;;;;;5.90;1.80;;;;;;;17.37;62.00;101290.16;6196496;23;20001;-81
2023/01/04 09:44:09;;;;;;;4.50;1.70;;;;;;;17.37;61.87;101303.16;6219620;23;20012;-80
2023/01/04 09:46:49;;;;;;;5.13;2.13;;;;;;;17.38;61.87;101303.19;6219277;23;20011;-80
2023/01/04 09:49:30;;;;;;;3.65;1.70;;;;;;;17.38;61.92;101307.53;6194316;23;20013;-80
2023/01/04 09:52:15;;;;;;;3.92;1.70;;;;;;;17.39;61.74;101306.66;6199578;23;20011;-81
2023/01/04 09:54:49;;;;;;;4.18;1.77;;;;;;;17.40;61.77;101296.25;6224831;23;19989;-81
2023/01/04 09:57:25;;;;;;;4.53;2.13;;;;;;;17.40;61.85;101305.78;6226168;23;20055;-79
2023/01/04 09:59:59;;;;;;;3.75;1.85;;;;;;;17.41;61.94;101289.28;6216934;23;20032;-79
2023/01/04 10:03:06;;;;;;;4.95;2.03;;;;;;;17.42;61.66;101270.19;6192724;23;20035;-80
2023/01/04 10:05:33;;;;;;;4.35;1.83;;;;;;;17.42;61.74;101286.69;6159074;23;20361;-80
2023/01/04 10:08:01;;;;;;;4.38;1.98;;;;;;;17.43;61.76;101285.81;6217257;23;20055;-79
2023/01/04 10:10:32;;;;;;;3.75;1.95;;;;;;;17.44;61.94;101299.69;6191483;23;20058;-80
2023/01/04 10:13:25;;;;;;;3.60;1.80;;;;;;;17.46;61.80;101287.53;6218677;23;20015;-80
2023/01/04 10:15:59;;;;;;;5.40;1.70;;;;;;;17.47;62.04;101295.34;6182285;23;20540;-80
2023/01/04 10:18:51;;;;;;;5.38;1.83;;;;;;;17.48;61.86;101291.91;6194278;23;20016;-80
2023/01/04 10:21:28;;;;;;;4.32;2.00;;;;;;;17.50;61.88;101297.09;6149946;23;20008;-80
2023/01/04 10:24:39;;;;;;;4.32;1.90;;;;;;;17.52;61.89;101297.09;6216346;23;20032;-79
2023/01/04 10:27:11;;;;;;;5.00;1.85;;;;;;;17.54;61.85;101295.34;6218417;23;20004;-79
2023/01/04 10:29:42;;;;;;;5.75;2.10;;;;;;;17.58;61.70;101289.28;6201322;23;20013;-79
2023/01/04 10:32:52;;;;;;;5.00;1.98;;;;;;;17.61;61.72;101294.47;6223051;23;20007;-79
2023/01/04 10:35:39;;;;;;;5.22;2.05;;;;;;;17.57;61.88;101285.81;6212458;23;20425;-80
2023/01/04 10:38:15;;;;;;;6.38;1.75;;;;;;;17.56;62.03;101285.81;6218445;23;20072;-80
2023/01/04 10:40:41;;;;;;;4.10;1.60;;;;;;;17.54;61.91;101284.94;6192967;23;20001;-79
2023/01/04 10:43:18;;;;;;;3.97;1.65;;;;;;;17.52;61.94;101281.47;6167451;23;20108;-79
2023/01/04 10:49:38;;;;;;;3.95;1.90;;;;;;;17.48;61.94;101286.69;6236171;23;20027;-81
2023/01/04 10:52:33;;;;;;;5.22;1.90;;;;;;;17.47;61.92;101295.34;6156009;23;1783009;-81
2023/01/04 10:55:49;;;;;;;5.50;2.17;;;;;;;17.45;62.09;101260.66;6234943;23;20082;-81
2023/01/04 10:58:35;;;;;;;4.88;1.83;;;;;;;17.44;62.09;101265.88;6086762;23;20003;-80
2023/01/04 11:01:13;;;;;;;4.70;1.73;;;;;;;17.43;61.94;101251.13;6156070;23;20015;-81
2023/01/04 11:04:09;;;;;;;5.57;2.15;;;;;;;17.43;61.94;101257.19;6232283;23;20405;-80
2023/01/04 11:06:46;;;;;;;4.47;1.88;;;;;;;17.46;62.06;101243.31;6232790;23;20373;-80
2023/01/04 11:10:02;;;;;;;5.43;1.92;;;;;;;17.46;62.13;101249.41;6229367;23;20130;-80
2023/01/04 11:12:28;;;;;;;6.35;2.17;;;;;;;17.46;62.12;101253.72;6222962;23;20009;-80
2023/01/04 11:14:53;;;;;;;4.47;1.80;;;;;;;17.45;61.89;101273.66;6203636;23;20107;-80
2023/01/04 11:17:20;;;;;;;4.78;1.90;;;;;;;17.44;61.88;101248.53;6204952;23;20012;-80
2023/01/04 11:19:47;;;;;;;5.03;1.98;;;;;;;17.43;61.84;101246.78;6183936;23;20012;-81
2023/01/04 11:22:23;;;;;;;4.53;2.00;;;;;;;17.44;61.88;101232.03;6237585;23;20099;-82
2023/01/04 11:25:05;;;;;;;3.75;1.70;;;;;;;17.41;62.05;101248.53;6236711;23;20020;-81
2023/01/04 11:27:40;;;;;;;5.70;1.98;;;;;;;17.42;62.03;101265.88;6212920;23;20024;-82
2023/01/04 11:39:51;;;;;;;4.05;1.63;;;;;;;17.45;61.80;101246.81;6240658;23;20015;-81
2023/01/04 11:48:14;;;;;;;5.57;1.95;;;;;;;17.45;62.08;101255.47;6242222;23;20008;-81
2023/01/04 11:50:44;;;;;;;7.97;2.13;;;;;;;17.45;62.30;101241.59;6236841;22;20017;-82
2023/01/04 11:53:28;;;;;;;5.30;2.00;;;;;;;17.46;62.08;101249.41;6195561;23;20016;-81
2023/01/04 11:56:25;;;;;;;7.10;1.88;;;;;;;17.45;62.32;101244.19;6230552;23;20019;-82
2023/01/04 11:59:22;;;;;;;5.53;2.00;;;;;;;17.45;62.29;101254.59;6212751;23;20012;-83
2023/01/04 12:29:29;;;;;;;6.03;2.05;;;;;;;17.51;62.16;101241.59;6239051;22;20023;-83
2023/01/04 12:36:26;;;;;;;4.22;1.70;;;;;;;17.51;62.35;101238.09;6211594;23;20056;-82
2023/01/04 12:42:33;;;;;;;5.40;1.92;;;;;;;17.52;62.18;101238.09;6213139;23;20028;-83
2023/01/04 12:55:00;;;;;;;5.82;2.03;;;;;;;17.51;62.32;101253.69;6198932;22;20015;-82
2023/01/04 13:22:33;;;;;;;5.25;1.92;;;;;;;17.56;62.46;101246.78;6214238;23;20009;-84
2023/01/04 13:25:34;;;;;;;8.48;2.55;;;;;;;17.54;62.46;101254.56;6210830;23;19997;-83
2023/01/04 13:28:43;;;;;;;5.57;2.17;;;;;;;17.54;62.36;101249.38;6189235;23;20020;-84
2023/01/04 15:39:23;;;;;;;8.75;2.50;;;;;;;17.47;62.44;101225.09;6200319;22;20011;31
2023/01/04 17:21:20;;;;;;;7.72;2.90;;;;;;;17.36;62.15;101281.50;6210134;23;20088;-82
2023/01/04 17:23:48;;;;;;;6.55;2.58;;;;;;;17.37;61.87;101284.97;6214159;23;19997;-83
2023/01/04 19:07:52;;;;;;;10.88;3.67;;;;;;;17.33;62.30;101348.25;6184361;23;20012;-83
2023/01/04 19:10:28;;;;;;;10.75;3.40;;;;;;;17.32;62.21;101359.56;6222046;22;20029;-81
2023/01/04 19:12:54;;;;;;;11.23;3.55;;;;;;;17.31;62.02;101355.19;6208610;23;20021;-83
2023/01/04 19:15:23;;;;;;;9.35;3.22;;;;;;;17.30;61.86;101351.75;6211042;23;20001;-83
2023/01/04 19:17:52;;;;;;;9.65;3.33;;;;;;;17.30;61.99;101358.69;6207949;23;20036;-82
2023/01/04 19:20:22;;;;;;;8.88;3.40;;;;;;;17.29;61.97;101357.81;6209627;23;20024;-83
2023/01/04 19:22:49;;;;;;;9.68;3.53;;;;;;;17.28;62.15;101351.72;6205645;23;20007;-82
2023/01/04 19:25:17;;;;;;;8.45;3.40;;;;;;;17.28;62.02;101351.72;6177982;23;20044;-82
2023/01/04 19:27:45;;;;;;;10.32;3.88;;;;;;;17.28;62.13;101353.47;6203281;23;20005;-82
2023/01/04 19:30:11;;;;;;;14.95;3.60;;;;;;;17.27;62.11;101362.16;6196143;23;20009;-79
2023/01/04 19:32:40;;;;;;;8.43;3.42;;;;;;;17.26;62.03;101363.00;6200338;23;20016;-80
2023/01/04 19:35:10;;;;;;;10.90;3.70;;;;;;;17.26;62.00;101360.41;6201564;23;20009;-81
2023/01/04 19:37:45;;;;;;;8.95;3.40;;;;;;;17.27;62.32;101364.75;6183466;23;20005;-81
2023/01/04 19:40:47;;;;;;;12.73;3.65;;;;;;;17.26;62.05;101370.81;6161017;23;20005;-81
2023/01/04 19:43:50;;;;;;;12.23;3.45;;;;;;;17.25;61.94;101371.69;6208866;23;20013;-81
2023/01/04 19:46:27;;;;;;;10.50;3.28;;;;;;;17.25;61.78;101369.94;6211442;23;20009;-82
2023/01/04 19:49:34;;;;;;;9.98;3.40;;;;;;;17.25;62.08;101379.50;6213759;23;20044;-81
2023/01/04 19:52:20;;;;;;;9.98;3.05;;;;;;;17.25;61.99;101374.28;6174792;23;20018;-81
2023/01/04 19:54:57;;;;;;;8.85;3.47;;;;;;;17.23;61.81;101374.28;6148482;23;20044;-81
2023/01/04 19:57:24;;;;;;;8.77;3.28;;;;;;;17.24;61.76;101389.00;6151263;23;20033;-81
2023/01/04 20:00:37;;;;;;;;;;;;;;;;;;;;;
2023/01/04 20:06:35;;;;;;;10.65;3.50;;;;;;;17.24;61.95;101395.94;6183664;23;20029;-81
2023/01/04 20:12:26;;;;;;;;;;;;;;;;;;;;;
2023/01/04 20:26:14;;;;;;;10.88;3.83;;;;;;;17.21;61.83;101419.38;6201693;22;20021;-81
2023/01/04 20:29:08;;;;;;;10.25;3.80;;;;;;;17.20;61.93;101418.50;6213156;23;20064;-82
2023/01/04 20:52:38;;;;;;;10.70;3.70;;;;;;;17.19;61.73;101434.09;6207024;22;20020;-82
2023/01/04 20:55:04;;;;;;;11.63;4.00;;;;;;;17.19;62.04;101441.91;6222263;23;20031;-82
2023/01/04 20:57:30;;;;;;;10.02;3.47;;;;;;;17.20;61.96;101448.81;6223956;23;20376;-82
2023/01/04 20:59:56;;;;;;;9.57;3.40;;;;;;;17.19;61.83;101460.97;6200547;23;20032;-82
2023/01/04 21:02:22;;;;;;;11.07;3.80;;;;;;;17.18;61.43;101450.56;6225595;23;20009;-82
2023/01/04 21:04:51;;;;;;;10.38;3.50;;;;;;;17.18;61.88;101453.16;6199508;23;20064;-82
2023/01/04 21:07:21;;;;;;;11.30;3.72;;;;;;;17.18;61.86;101456.66;6225414;23;20004;-82
2023/01/04 21:09:47;;;;;;;10.57;3.83;;;;;;;17.18;61.84;101461.84;6226645;23;20005;-82
2023/01/04 21:12:13;;;;;;;12.07;3.72;;;;;;;17.18;61.69;101455.75;6227023;23;20032;-82